Time;durP1;ratioP1;P1;durP2;ratioP2;P2;SDS_P1;SDS_P2;PMS_P1;PMS_P2;Temp;Humidity;BMP_temperature;BMP_pressure;BME280_temperature;BME280_humidity;BME280_pressure;Samples;Min_cycle;Max_cycle;Signal;HPM_P1;HPM_P2
2023/09/17 00:01:34;;;;;;;34.50;32.50;;;21.30;99.90;;;;;;5051818;28;20036;-73
2023/09/17 00:04:00;;;;;;;33.80;31.75;;;21.30;99.90;;;;;;5051709;28;20033;-73
2023/09/17 00:06:27;;;;;;;31.08;29.35;;;21.20;99.90;;;;;;5051583;28;20506;-73
2023/09/17 00:08:53;;;;;;;31.73;30.02;;;21.20;99.90;;;;;;5052757;28;20043;-73
2023/09/17 00:11:19;;;;;;;29.05;27.33;;;21.30;99.90;;;;;;5052542;28;20399;-73
2023/09/17 00:13:45;;;;;;;29.40;27.30;;;21.30;99.90;;;;;;5010375;28;1222296;-73
2023/09/17 00:16:11;;;;;;;28.27;26.60;;;21.30;99.90;;;;;;5051322;28;20048;-73
2023/09/17 00:18:37;;;;;;;32.15;30.27;;;21.30;99.90;;;;;;5052691;28;20460;-73
2023/09/17 00:21:06;;;;;;;29.83;27.83;;;21.40;99.90;;;;;;5053551;28;20037;-74
2023/09/17 00:23:32;;;;;;;31.42;29.35;;;21.40;99.90;;;;;;5053931;28;20041;-73
2023/09/17 00:25:58;;;;;;;33.33;31.25;;;21.40;99.90;;;;;;5053186;28;20032;-73
2023/09/17 00:28:24;;;;;;;30.75;28.70;;;21.30;99.90;;;;;;5053663;28;20036;-73
2023/09/17 00:30:50;;;;;;;32.70;30.70;;;21.20;99.90;;;;;;5052158;28;20045;-73
2023/09/17 00:33:16;;;;;;;34.70;32.47;;;21.10;99.90;;;;;;5052741;28;20032;-73
2023/09/17 00:35:43;;;;;;;29.80;27.88;;;21.00;99.90;;;;;;5053123;28;20028;-73
2023/09/17 00:38:09;;;;;;;30.50;28.65;;;20.90;99.90;;;;;;5053212;28;20033;-73
2023/09/17 00:40:37;;;;;;;27.52;25.90;;;21.00;99.90;;;;;;5052772;28;20045;-73
2023/09/17 00:43:03;;;;;;;28.67;26.88;;;21.00;99.90;;;;;;5053507;28;20044;-73
2023/09/17 00:45:30;;;;;;;27.63;25.73;;;20.90;99.90;;;;;;5052127;28;20045;-73
2023/09/17 00:47:57;;;;;;;31.40;29.60;;;20.80;99.90;;;;;;5053256;28;20096;-72
2023/09/17 00:50:23;;;;;;;27.50;25.75;;;20.80;99.90;;;;;;5052705;28;20442;-73
2023/09/17 00:52:49;;;;;;;30.90;29.10;;;20.80;99.90;;;;;;5035519;28;20024;-74
2023/09/17 00:55:16;;;;;;;29.10;27.20;;;21.00;99.90;;;;;;5051698;28;20033;-73
2023/09/17 00:57:45;;;;;;;28.02;26.20;;;21.00;99.90;;;;;;5053113;28;20395;-73
2023/09/17 01:00:11;;;;;;;25.70;24.08;;;20.90;99.90;;;;;;5052191;28;20484;-73
2023/09/17 01:02:38;;;;;;;26.60;24.75;;;20.80;99.90;;;;;;5052854;28;20047;-73
2023/09/17 01:05:04;;;;;;;32.22;30.23;;;20.80;99.90;;;;;;5051705;28;20029;-73
2023/09/17 01:07:31;;;;;;;28.95;26.85;;;20.90;99.90;;;;;;5052875;28;20052;-73
2023/09/17 01:09:57;;;;;;;25.20;23.33;;;20.80;99.90;;;;;;5035294;28;20050;-73
2023/09/17 01:12:24;;;;;;;26.65;24.77;;;20.90;99.90;;;;;;5051173;28;20491;-73
2023/09/17 01:14:50;;;;;;;23.85;22.35;;;20.80;99.90;;;;;;5052372;28;20056;-73
2023/09/17 01:17:16;;;;;;;28.48;26.77;;;20.70;99.90;;;;;;5050701;28;20032;-73
2023/09/17 01:19:42;;;;;;;29.90;27.95;;;20.80;99.90;;;;;;5051376;28;20048;-75
2023/09/17 01:22:12;;;;;;;27.98;26.17;;;20.90;99.90;;;;;;5052127;28;20029;-73
2023/09/17 01:25:23;;;;;;;31.88;30.00;;;20.80;99.90;;;;;;5052599;28;20471;-73
2023/09/17 01:27:49;;;;;;;28.70;26.90;;;20.90;99.90;;;;;;5029332;28;20060;-73
2023/09/17 01:30:15;;;;;;;25.88;24.13;;;20.90;99.90;;;;;;5012999;28;20053;-74
2023/09/17 01:32:42;;;;;;;23.90;22.38;;;20.90;99.90;;;;;;5030368;28;20034;-73
2023/09/17 01:35:13;;;;;;;22.52;21.10;;;21.10;99.90;;;;;;5029642;28;20044;-73
2023/09/17 01:37:41;;;;;;;28.60;27.00;;;21.10;99.90;;;;;;5010188;28;20504;-73
2023/09/17 01:40:14;;;;;;;28.40;26.60;;;21.10;99.90;;;;;;5026615;28;20038;-73
2023/09/17 01:42:43;;;;;;;27.02;25.20;;;20.90;99.90;;;;;;4994633;28;20064;-73
2023/09/17 01:45:10;;;;;;;28.65;26.85;;;20.90;99.90;;;;;;5009361;28;20048;-73
2023/09/17 01:47:36;;;;;;;26.88;25.35;;;20.90;99.90;;;;;;5009762;28;20472;-73
2023/09/17 01:50:04;;;;;;;27.67;26.00;;;20.80;99.90;;;;;;5026594;28;20042;-73
2023/09/17 01:52:32;;;;;;;27.00;25.20;;;20.80;99.90;;;;;;5026135;28;20045;-73
2023/09/17 01:55:00;;;;;;;27.40;25.80;;;20.90;99.90;;;;;;4993720;28;20042;-73
2023/09/17 01:57:26;;;;;;;26.33;24.50;;;21.00;99.90;;;;;;5028265;28;20037;-72
2023/09/17 01:59:52;;;;;;;25.42;23.85;;;21.10;99.90;;;;;;5029904;28;20033;-72
2023/09/17 02:02:19;;;;;;;27.13;25.45;;;21.10;99.90;;;;;;5053627;28;20633;-73
2023/09/17 02:04:46;;;;;;;30.88;28.98;;;21.00;99.90;;;;;;5051985;28;20053;-73
2023/09/17 02:07:12;;;;;;;26.75;25.05;;;21.10;99.90;;;;;;5051594;28;20029;-73
2023/09/17 02:09:38;;;;;;;27.58;25.45;;;21.00;99.90;;;;;;5052027;28;20092;-73
2023/09/17 02:12:04;;;;;;;26.20;24.40;;;20.90;99.90;;;;;;5051263;28;20037;-72
2023/09/17 02:14:30;;;;;;;25.77;24.33;;;20.80;99.90;;;;;;5051952;28;20053;-71
2023/09/17 02:16:57;;;;;;;25.85;24.20;;;20.90;99.90;;;;;;5051265;28;20033;-72
2023/09/17 02:19:25;;;;;;;27.30;25.50;;;21.00;99.90;;;;;;5051885;28;20091;-72
2023/09/17 02:21:52;;;;;;;26.80;25.17;;;21.00;99.90;;;;;;5052137;28;20468;-71
2023/09/17 02:24:19;;;;;;;26.85;25.27;;;20.80;99.90;;;;;;5052230;28;20134;-72
2023/09/17 02:26:46;;;;;;;26.92;25.23;;;20.80;99.90;;;;;;5049966;28;20040;-72
2023/09/17 02:29:13;;;;;;;27.40;25.60;;;21.00;99.90;;;;;;5052306;28;20052;-72
2023/09/17 02:31:39;;;;;;;31.15;29.02;;;21.10;99.90;;;;;;5051126;28;20053;-73
2023/09/17 02:34:05;;;;;;;31.80;29.75;;;21.10;99.90;;;;;;5051788;28;20021;-72
2023/09/17 02:36:34;;;;;;;28.20;26.38;;;21.10;99.90;;;;;;5051268;28;20036;-72
2023/09/17 02:39:00;;;;;;;33.28;31.23;;;21.10;99.90;;;;;;5051825;28;20040;-72
2023/09/17 02:41:26;;;;;;;33.80;31.95;;;21.00;99.90;;;;;;5051005;28;20033;-72
2023/09/17 02:43:52;;;;;;;29.95;28.20;;;20.90;99.90;;;;;;5052191;28;20033;-72
2023/09/17 02:46:18;;;;;;;29.50;27.75;;;20.90;99.90;;;;;;5050940;28;20040;-72
2023/09/17 02:48:47;;;;;;;27.80;25.88;;;21.00;99.90;;;;;;5051987;28;20037;-72
2023/09/17 02:51:13;;;;;;;39.33;36.92;;;21.10;99.90;;;;;;5051343;28;20072;-72
2023/09/17 02:53:39;;;;;;;32.05;30.30;;;21.00;99.90;;;;;;5051790;28;20021;-72
2023/09/17 02:56:05;;;;;;;31.88;29.85;;;21.00;99.90;;;;;;5049696;28;20040;-72
2023/09/17 02:58:31;;;;;;;27.52;25.85;;;21.10;99.90;;;;;;5055177;28;20025;-72
2023/09/17 03:00:57;;;;;;;28.42;26.83;;;21.20;99.90;;;;;;5054376;28;20041;-72
2023/09/17 03:03:23;;;;;;;31.17;29.38;;;21.30;99.90;;;;;;5055231;28;20483;-73
2023/09/17 03:05:49;;;;;;;30.10;28.35;;;21.40;99.90;;;;;;5053599;28;20063;-72
2023/09/17 03:08:16;;;;;;;28.40;26.40;;;21.40;99.90;;;;;;5055502;28;20375;-72
2023/09/17 03:10:42;;;;;;;29.63;27.77;;;21.40;99.90;;;;;;5054522;28;20049;-72
2023/09/17 03:13:14;;;;;;;28.70;27.10;;;21.40;99.90;;;;;;5055107;28;20037;-72
2023/09/17 03:15:41;;;;;;;31.52;29.63;;;21.40;99.90;;;;;;5052684;28;20041;-73
2023/09/17 03:18:08;;;;;;;29.95;28.05;;;21.40;99.90;;;;;;5054957;28;20032;-73
2023/09/17 03:20:34;;;;;;;24.02;22.40;;;21.50;99.90;;;;;;5054401;28;20032;-73
2023/09/17 03:23:02;;;;;;;27.73;26.00;;;21.50;99.90;;;;;;5055062;28;20033;-73
2023/09/17 03:25:31;;;;;;;27.45;25.80;;;21.50;99.90;;;;;;5054686;28;20044;-73
2023/09/17 03:28:01;;;;;;;25.50;23.80;;;21.50;99.90;;;;;;5054743;28;20025;-73
2023/09/17 03:30:27;;;;;;;27.17;25.48;;;21.50;99.90;;;;;;5053829;28;20033;-73
2023/09/17 03:32:53;;;;;;;28.95;27.20;;;21.50;99.90;;;;;;5054513;28;20463;-73
2023/09/17 03:35:19;;;;;;;31.50;29.65;;;21.40;99.90;;;;;;5054279;28;20029;-73
2023/09/17 03:37:46;;;;;;;30.48;28.40;;;21.30;99.90;;;;;;5040346;28;20041;-73
2023/09/17 03:40:14;;;;;;;26.55;24.83;;;21.40;99.90;;;;;;5044944;28;20056;-73
2023/09/17 03:42:41;;;;;;;25.80;24.20;;;21.40;99.90;;;;;;5054463;28;20068;-73
2023/09/17 03:45:09;;;;;;;34.58;32.53;;;21.40;99.90;;;;;;5054016;28;20032;-73
2023/09/17 03:47:39;;;;;;;27.50;25.60;;;21.40;99.90;;;;;;5034287;28;20097;-73
2023/09/17 03:50:06;;;;;;;29.02;26.90;;;21.40;99.90;;;;;;5033068;28;20033;-73
2023/09/17 03:52:38;;;;;;;29.45;27.48;;;21.40;99.90;;;;;;5053277;28;20037;-73
2023/09/17 03:55:07;;;;;;;30.08;28.33;;;21.40;99.90;;;;;;5053105;28;20032;-74
2023/09/17 03:57:34;;;;;;;33.83;31.73;;;21.40;99.90;;;;;;5052804;28;20037;-73
2023/09/17 04:00:07;;;;;;;29.10;27.40;;;21.40;99.90;;;;;;5052974;28;20025;-74
2023/09/17 04:02:37;;;;;;;28.05;26.45;;;21.60;99.90;;;;;;5053264;28;20041;-73
2023/09/17 04:05:08;;;;;;;29.20;27.33;;;21.60;99.90;;;;;;5054091;28;20033;-73
2023/09/17 04:07:35;;;;;;;28.13;26.52;;;21.50;99.90;;;;;;5053033;28;20040;-73
2023/09/17 04:10:02;;;;;;;32.05;30.20;;;21.50;99.90;;;;;;5053063;28;20380;-73
2023/09/17 04:12:29;;;;;;;27.83;26.23;;;21.50;99.90;;;;;;5053551;28;20498;-73
2023/09/17 04:14:55;;;;;;;28.63;26.73;;;21.50;99.90;;;;;;5053996;28;20052;-73
2023/09/17 04:17:21;;;;;;;26.13;24.60;;;21.30;99.90;;;;;;5052966;28;20037;-74
2023/09/17 04:19:47;;;;;;;26.48;24.88;;;21.20;99.90;;;;;;5053823;28;20017;-73
2023/09/17 04:22:13;;;;;;;38.17;35.97;;;21.00;99.90;;;;;;5053029;28;20036;-73
2023/09/17 04:24:39;;;;;;;34.83;32.83;;;20.80;99.90;;;;;;5053497;28;20032;-73
2023/09/17 04:27:05;;;;;;;28.00;26.25;;;20.80;99.90;;;;;;5053352;28;20041;-73
2023/09/17 04:29:31;;;;;;;26.98;25.10;;;20.80;99.90;;;;;;5053407;28;20025;-73
2023/09/17 04:31:57;;;;;;;24.45;22.75;;;20.70;99.90;;;;;;5052881;28;20068;-73
2023/09/17 04:34:24;;;;;;;22.77;21.35;;;20.70;99.90;;;;;;5053480;28;20028;-73
2023/09/17 04:36:50;;;;;;;23.95;22.45;;;20.80;99.90;;;;;;5046290;28;20473;-73
2023/09/17 04:39:16;;;;;;;25.77;24.17;;;20.90;99.90;;;;;;5036651;28;20394;-73
2023/09/17 04:41:43;;;;;;;25.48;23.85;;;21.00;99.90;;;;;;5053105;28;20033;-74
2023/09/17 04:44:10;;;;;;;25.45;23.92;;;21.10;99.90;;;;;;5053272;28;20025;-73
2023/09/17 04:46:40;;;;;;;29.38;27.58;;;21.10;99.90;;;;;;5052186;28;20063;-73
2023/09/17 04:49:06;;;;;;;25.98;23.88;;;20.90;99.90;;;;;;5053756;28;20044;-73
2023/09/17 04:51:34;;;;;;;26.27;24.10;;;20.60;99.90;;;;;;5051280;28;20040;-73
2023/09/17 04:54:00;;;;;;;34.45;31.95;;;20.40;99.90;;;;;;5053264;28;20037;-73
2023/09/17 04:56:26;;;;;;;29.20;27.08;;;20.40;99.90;;;;;;5052704;28;20506;-73
2023/09/17 04:58:52;;;;;;;30.17;28.35;;;20.50;99.90;;;;;;5053041;28;20041;-71
2023/09/17 05:01:19;;;;;;;31.05;29.15;;;20.60;99.90;;;;;;5052018;28;20048;-72
2023/09/17 05:03:46;;;;;;;26.80;25.10;;;20.80;99.90;;;;;;5053360;28;20475;-72
2023/09/17 05:06:12;;;;;;;33.30;30.95;;;20.80;99.90;;;;;;5052677;28;20045;-72
2023/09/17 05:08:39;;;;;;;24.73;23.17;;;20.80;99.90;;;;;;5053211;28;20376;-71
2023/09/17 05:11:05;;;;;;;33.35;31.30;;;20.90;99.90;;;;;;5052702;28;20044;-72
2023/09/17 05:13:31;;;;;;;29.30;27.52;;;21.00;99.90;;;;;;5052646;28;20053;-72
2023/09/17 05:15:57;;;;;;;34.30;32.22;;;21.10;99.90;;;;;;5051877;28;20044;-71
2023/09/17 05:18:24;;;;;;;29.83;27.95;;;21.10;99.90;;;;;;5052666;28;20037;-72
2023/09/17 05:20:53;;;;;;;27.60;25.67;;;21.10;99.90;;;;;;5034119;28;20443;-72
2023/09/17 05:23:22;;;;;;;28.70;26.52;;;20.90;99.90;;;;;;5053055;28;20467;-72
2023/09/17 05:25:48;;;;;;;25.15;23.65;;;20.70;99.90;;;;;;5052998;28;20396;-71
2023/09/17 05:28:15;;;;;;;28.33;26.60;;;20.50;99.90;;;;;;5052495;28;20036;-72
2023/09/17 05:30:41;;;;;;;43.63;41.13;;;20.60;99.90;;;;;;5051950;28;20033;-71
2023/09/17 05:33:07;;;;;;;32.05;30.17;;;20.70;99.90;;;;;;5052530;28;20033;-71
2023/09/17 05:35:34;;;;;;;26.55;24.85;;;20.90;99.90;;;;;;5052071;28;20025;-71
2023/09/17 05:38:03;;;;;;;31.23;29.23;;;21.00;99.90;;;;;;5051072;28;20043;-72
2023/09/17 05:40:29;;;;;;;26.73;25.02;;;21.10;99.90;;;;;;5052462;28;20025;-72
2023/09/17 05:42:57;;;;;;;28.13;26.42;;;21.00;99.90;;;;;;5052308;28;20043;-71
2023/09/17 05:45:23;;;;;;;25.85;24.35;;;20.80;99.90;;;;;;5051932;28;20039;-72
2023/09/17 05:47:49;;;;;;;32.13;29.85;;;20.80;99.90;;;;;;5052871;28;20037;-72
2023/09/17 05:50:17;;;;;;;29.88;28.15;;;20.60;99.90;;;;;;5051799;28;20033;-72
2023/09/17 05:52:43;;;;;;;28.38;26.35;;;20.60;99.90;;;;;;5052127;28;20028;-72
2023/09/17 05:55:09;;;;;;;31.80;29.85;;;20.60;99.90;;;;;;5052262;28;20036;-72
2023/09/17 05:57:35;;;;;;;26.55;24.85;;;20.50;99.90;;;;;;5052141;28;20029;-72
2023/09/17 06:00:03;;;;;;;29.38;27.55;;;20.40;99.90;;;;;;5052275;28;20494;-72
2023/09/17 06:02:29;;;;;;;44.78;42.08;;;20.40;99.90;;;;;;5049955;28;21084;-71
2023/09/17 06:04:55;;;;;;;47.97;45.38;;;20.50;99.90;;;;;;5050533;28;20044;-72
2023/09/17 06:07:22;;;;;;;63.28;59.75;;;20.60;99.90;;;;;;5052591;28;20045;-73
2023/09/17 06:09:48;;;;;;;51.20;48.25;;;20.60;99.90;;;;;;5051986;28;20036;-73
2023/09/17 06:12:15;;;;;;;54.50;51.25;;;20.70;99.90;;;;;;5051777;28;20048;-73
2023/09/17 06:14:41;;;;;;;91.20;85.95;;;20.80;99.90;;;;;;5051803;28;20056;-73
2023/09/17 06:17:08;;;;;;;49.65;46.92;;;20.50;99.90;;;;;;5051095;28;20029;-72
2023/09/17 06:19:36;;;;;;;52.50;49.08;;;20.50;99.90;;;;;;5052020;28;20032;-73
2023/09/17 06:22:02;;;;;;;60.28;56.88;;;20.60;99.90;;;;;;5051747;28;20052;-73
2023/09/17 06:24:28;;;;;;;51.53;48.45;;;20.60;99.90;;;;;;5051774;28;20025;-72
2023/09/17 06:26:55;;;;;;;49.90;46.67;;;20.50;99.90;;;;;;5051502;28;20395;-72
2023/09/17 06:29:21;;;;;;;69.13;65.28;;;20.50;99.90;;;;;;5051844;28;20658;-72
2023/09/17 06:31:48;;;;;;;63.85;60.20;;;20.60;99.90;;;;;;5050560;28;20056;-72
2023/09/17 06:34:14;;;;;;;62.17;58.75;;;20.80;99.90;;;;;;5054633;28;20036;-73
2023/09/17 06:36:40;;;;;;;63.22;59.72;;;20.80;99.90;;;;;;5055312;28;20033;-72
2023/09/17 06:39:06;;;;;;;75.63;71.55;;;20.90;99.90;;;;;;5054292;28;20091;-72
2023/09/17 06:41:32;;;;;;;73.72;69.65;;;21.00;99.90;;;;;;5055286;28;20048;-73
2023/09/17 06:43:58;;;;;;;72.35;68.22;;;21.00;99.90;;;;;;5055379;28;20029;-72
2023/09/17 06:46:25;;;;;;;69.13;65.50;;;21.10;99.90;;;;;;5054804;28;20411;-72
2023/09/17 06:48:51;;;;;;;67.03;63.22;;;20.90;99.90;;;;;;5037795;28;20471;-72
2023/09/17 06:51:17;;;;;;;67.90;64.32;;;20.70;99.90;;;;;;5054976;28;20036;-73
2023/09/17 06:53:43;;;;;;;71.47;67.57;;;20.70;99.90;;;;;;5055536;28;20036;-73
2023/09/17 06:56:11;;;;;;;87.50;82.68;;;20.80;99.90;;;;;;5054882;28;20033;-73
2023/09/17 06:58:37;;;;;;;65.32;61.83;;;21.00;99.90;;;;;;5055342;28;20040;-72
2023/09/17 07:01:04;;;;;;;63.53;59.72;;;21.20;99.90;;;;;;5054016;28;20033;-73
2023/09/17 07:03:32;;;;;;;62.20;58.70;;;21.40;99.90;;;;;;5053987;28;20056;-72
2023/09/17 07:05:58;;;;;;;66.40;62.72;;;21.60;99.90;;;;;;5055121;28;20041;-73
2023/09/17 07:08:25;;;;;;;67.15;63.13;;;21.70;99.90;;;;;;5055345;28;20025;-73
2023/09/17 07:10:51;;;;;;;77.85;73.50;;;22.00;99.90;;;;;;5054303;28;20502;-73
2023/09/17 07:13:17;;;;;;;73.57;69.53;;;22.20;99.90;;;;;;5053712;28;20052;-73
2023/09/17 07:15:46;;;;;;;68.18;64.40;;;22.20;99.90;;;;;;5053956;28;20081;-73
2023/09/17 07:18:13;;;;;;;49.70;46.92;;;22.10;99.90;;;;;;5055229;28;20052;-73
2023/09/17 07:20:39;;;;;;;57.58;54.33;;;22.00;99.90;;;;;;5055103;28;20064;-72
2023/09/17 07:23:05;;;;;;;58.85;55.75;;;21.90;99.90;;;;;;5054943;28;20021;-73
2023/09/17 07:25:31;;;;;;;65.97;62.50;;;21.80;99.90;;;;;;5054474;28;20752;-73
2023/09/17 07:28:04;;;;;;;66.50;62.83;;;21.70;99.90;;;;;;5055233;28;20037;-73
2023/09/17 07:30:37;;;;;;;72.70;68.38;;;21.60;99.90;;;;;;5053967;28;20434;-73
2023/09/17 07:33:04;;;;;;;72.72;68.93;;;21.60;99.90;;;;;;5054473;28;20037;-74
2023/09/17 07:35:34;;;;;;;91.97;87.07;;;21.50;99.90;;;;;;5054411;28;20029;-74
2023/09/17 07:38:00;;;;;;;82.13;77.50;;;21.50;99.90;;;;;;5053195;28;20045;-73
2023/09/17 07:40:26;;;;;;;83.13;78.45;;;21.40;99.90;;;;;;5054201;28;20040;-73
2023/09/17 07:42:52;;;;;;;98.15;92.75;;;21.30;99.90;;;;;;5054101;28;20048;-73
2023/09/17 07:45:18;;;;;;;97.22;91.90;;;21.30;99.90;;;;;;5053279;28;20029;-73
2023/09/17 07:47:45;;;;;;;69.90;66.20;;;21.30;99.90;;;;;;5054422;28;20029;-73
2023/09/17 07:50:11;;;;;;;88.60;83.82;;;21.20;99.90;;;;;;5053930;28;20025;-72
2023/09/17 07:52:38;;;;;;;86.25;81.55;;;21.20;99.90;;;;;;5034896;28;20046;-73
2023/09/17 07:55:04;;;;;;;76.18;72.10;;;21.10;99.90;;;;;;5034697;28;20037;-73
2023/09/17 07:57:30;;;;;;;82.22;77.63;;;21.10;99.90;;;;;;5053309;28;20048;-73
2023/09/17 07:59:57;;;;;;;61.83;58.45;;;21.10;99.90;;;;;;5052664;28;20055;-72
2023/09/17 08:02:23;;;;;;;69.70;66.05;;;21.10;99.90;;;;;;5053321;28;20347;-73
2023/09/17 08:04:49;;;;;;;84.43;79.97;;;21.10;99.90;;;;;;5053923;28;20029;-73
2023/09/17 08:07:16;;;;;;;60.08;56.58;;;21.10;99.90;;;;;;5053689;28;20415;-72
2023/09/17 08:09:43;;;;;;;56.17;53.15;;;21.00;99.90;;;;;;5052636;28;20037;-72
2023/09/17 08:12:10;;;;;;;61.33;57.95;;;21.00;99.90;;;;;;5054160;28;20061;-72
2023/09/17 08:14:36;;;;;;;61.63;58.00;;;21.00;99.90;;;;;;5053723;28;20049;-72
2023/09/17 08:17:04;;;;;;;55.28;52.28;;;21.00;99.90;;;;;;5053199;28;20045;-73
2023/09/17 08:19:32;;;;;;;57.97;54.67;;;21.00;99.90;;;;;;5053585;28;20017;-73
2023/09/17 08:21:58;;;;;;;71.65;67.82;;;21.10;99.90;;;;;;5053593;28;20079;-71
2023/09/17 08:24:25;;;;;;;61.28;57.83;;;21.00;99.90;;;;;;5053530;28;20041;-71
2023/09/17 08:26:52;;;;;;;57.33;54.03;;;21.10;99.90;;;;;;5053234;28;20041;-71
2023/09/17 08:29:21;;;;;;;51.40;48.53;;;21.10;99.90;;;;;;5053169;28;20041;-72
2023/09/17 08:31:47;;;;;;;68.75;65.20;;;21.10;99.90;;;;;;5052874;28;20049;-72
2023/09/17 08:34:16;;;;;;;68.22;64.50;;;21.10;99.90;;;;;;5053578;28;20490;-72
2023/09/17 08:36:44;;;;;;;59.75;56.45;;;21.00;99.90;;;;;;5053186;28;20048;-72
2023/09/17 08:39:11;;;;;;;67.13;62.92;;;20.90;99.90;;;;;;5053321;28;20037;-71
2023/09/17 08:41:38;;;;;;;53.28;50.13;;;20.70;99.90;;;;;;5052960;28;20044;-72
2023/09/17 08:44:04;;;;;;;51.38;48.13;;;20.70;99.90;;;;;;5051347;28;20036;-72
2023/09/17 08:46:32;;;;;;;52.03;48.95;;;20.70;99.90;;;;;;5051426;28;20037;-72
2023/09/17 08:48:59;;;;;;;42.67;40.17;;;20.70;99.90;;;;;;5053259;28;20025;-72
2023/09/17 08:51:25;;;;;;;52.60;49.65;;;20.80;99.90;;;;;;5051284;28;20053;-72
2023/09/17 08:54:02;;;;;;;87.38;82.38;;;20.90;99.90;;;;;;5051387;28;20052;-72
2023/09/17 08:56:29;;;;;;;91.85;86.88;;;20.90;99.90;;;;;;5051011;28;20048;-72
2023/09/17 08:58:58;;;;;;;84.15;79.40;;;21.10;99.90;;;;;;5051916;28;20096;-72
2023/09/17 09:01:24;;;;;;;90.72;85.82;;;21.20;99.90;;;;;;5034489;28;20040;-71
2023/09/17 09:03:52;;;;;;;68.70;64.90;;;21.20;99.90;;;;;;5035353;28;20029;-72
2023/09/17 09:06:19;;;;;;;72.82;68.95;;;21.40;99.90;;;;;;5053066;28;20498;-72
2023/09/17 09:08:45;;;;;;;68.75;64.85;;;21.50;99.90;;;;;;5051949;28;20040;-72
2023/09/17 09:11:11;;;;;;;76.20;71.88;;;21.60;99.90;;;;;;5033945;28;20052;-72
2023/09/17 09:13:38;;;;;;;57.08;54.08;;;21.70;99.90;;;;;;5051466;28;20483;-72
2023/09/17 09:16:04;;;;;;;63.80;60.25;;;21.90;99.90;;;;;;5052155;28;20045;-72
2023/09/17 09:18:30;;;;;;;49.58;46.83;;;22.00;99.90;;;;;;5051753;28;20032;-72
2023/09/17 09:20:56;;;;;;;47.25;44.42;;;22.10;99.90;;;;;;5051194;28;20025;-72
2023/09/17 09:23:23;;;;;;;48.88;45.72;;;22.10;99.90;;;;;;5052702;28;20037;-72
2023/09/17 09:25:49;;;;;;;67.85;64.18;;;22.20;99.90;;;;;;5050551;28;20040;-71
2023/09/17 09:28:15;;;;;;;61.00;57.50;;;22.30;99.90;;;;;;5052559;28;20025;-72
2023/09/17 09:30:45;;;;;;;85.78;81.18;;;22.50;99.90;;;;;;5052104;28;20507;-73
2023/09/17 09:33:12;;;;;;;41.08;38.65;;;22.80;99.90;;;;;;5052562;28;20388;-73
2023/09/17 09:35:38;;;;;;;53.40;50.53;;;22.80;99.90;;;;;;5050372;28;20483;-73
2023/09/17 09:38:04;;;;;;;60.40;56.75;;;23.10;99.90;;;;;;5034510;28;20029;-72
2023/09/17 09:40:34;;;;;;;75.03;71.07;;;23.20;99.90;;;;;;5051747;28;20039;-73
2023/09/17 09:43:02;;;;;;;47.88;45.15;;;23.30;99.90;;;;;;5050981;28;20063;-73
2023/09/17 09:45:28;;;;;;;105.55;100.18;;;23.40;99.90;;;;;;5034040;28;20025;-74
2023/09/17 09:47:54;;;;;;;91.13;86.20;;;23.40;99.90;;;;;;5052094;28;20021;-73
2023/09/17 09:50:27;;;;;;;114.63;108.78;;;23.50;99.90;;;;;;5052289;28;20037;-73
2023/09/17 09:52:54;;;;;;;111.28;105.32;;;23.60;99.90;;;;;;5052064;28;20108;-73
2023/09/17 09:55:24;;;;;;;103.28;97.90;;;23.60;99.90;;;;;;5052088;28;20044;-73
2023/09/17 09:57:51;;;;;;;107.13;101.25;;;23.60;99.90;;;;;;5052689;28;20033;-73
2023/09/17 10:00:26;;;;;;;119.28;113.18;;;23.70;99.90;;;;;;5050292;28;20493;-73
2023/09/17 10:02:55;;;;;;;117.55;111.45;;;23.80;99.90;;;;;;5050447;28;20091;-73
2023/09/17 10:05:34;;;;;;;165.18;156.77;;;23.90;99.90;;;;;;5050736;28;20558;-73
2023/09/17 10:08:00;;;;;;;115.43;109.55;;;23.80;99.90;;;;;;5055108;28;20040;-72
2023/09/17 10:10:26;;;;;;;123.00;116.55;;;23.80;99.90;;;;;;5056009;28;20024;-73
2023/09/17 10:12:53;;;;;;;164.45;156.05;;;24.00;99.90;;;;;;5056128;28;20057;-73
2023/09/17 10:15:19;;;;;;;155.30;147.35;;;24.00;99.90;;;;;;5055448;28;20045;-72
2023/09/17 10:17:46;;;;;;;230.73;218.82;;;24.20;99.90;;;;;;5038468;28;20048;-73
2023/09/17 10:20:12;;;;;;;195.98;185.75;;;24.30;99.90;;;;;;5054458;28;20029;-73
2023/09/17 10:22:38;;;;;;;250.77;237.63;;;24.30;99.90;;;;;;5038246;28;20040;-73
2023/09/17 10:25:04;;;;;;;236.63;224.30;;;24.40;99.90;;;;;;5054139;28;20041;-73
2023/09/17 10:27:31;;;;;;;225.70;214.10;;;24.50;99.90;;;;;;5054409;28;20034;-73
2023/09/17 10:29:58;;;;;;;245.80;233.32;;;24.50;99.90;;;;;;5054510;28;20041;-72
2023/09/17 10:32:26;;;;;;;244.20;231.77;;;24.60;99.90;;;;;;5053296;28;20063;-73
2023/09/17 10:34:52;;;;;;;280.25;266.05;;;24.90;99.90;;;;;;5047733;28;20042;-73
2023/09/17 10:37:19;;;;;;;239.25;226.95;;;25.00;99.90;;;;;;5027247;28;20044;-72
2023/09/17 10:39:45;;;;;;;324.15;307.55;;;25.20;99.90;;;;;;5055319;28;20036;-73
2023/09/17 10:42:11;;;;;;;316.13;299.88;;;25.30;99.90;;;;;;5054177;28;20463;-73
2023/09/17 10:44:38;;;;;;;305.83;290.13;;;25.30;99.90;;;;;;5054249;28;20024;-73
2023/09/17 10:47:09;;;;;;;301.75;286.38;;;25.20;99.90;;;;;;5053936;28;20049;-72
2023/09/17 10:49:38;;;;;;;303.75;288.23;;;25.30;99.90;;;;;;5054280;28;20029;-72
2023/09/17 10:52:05;;;;;;;322.40;305.98;;;25.40;99.90;;;;;;5037679;28;20048;-72
2023/09/17 10:54:31;;;;;;;313.25;297.38;;;25.50;99.90;;;;;;5053144;28;20041;-72
2023/09/17 10:56:57;;;;;;;309.98;294.05;;;25.70;99.90;;;;;;5055121;28;20029;-73
2023/09/17 10:59:23;;;;;;;314.95;298.95;;;25.80;99.90;;;;;;5055462;28;20037;-72
2023/09/17 11:01:49;;;;;;;285.17;270.75;;;25.80;99.90;;;;;;5053348;28;20052;-73
2023/09/17 11:04:18;;;;;;;308.13;292.63;;;25.90;99.90;;;;;;5054336;28;20395;-73
2023/09/17 11:06:46;;;;;;;312.65;296.88;;;25.90;99.90;;;;;;5054037;28;20048;-73
2023/09/17 11:09:12;;;;;;;318.95;302.55;;;26.00;99.90;;;;;;5053523;28;20021;-72
2023/09/17 11:11:39;;;;;;;328.60;311.73;;;26.10;99.90;;;;;;5053564;28;20471;-73
2023/09/17 11:14:05;;;;;;;333.27;316.17;;;26.10;99.90;;;;;;5055345;28;20392;-73
2023/09/17 11:16:32;;;;;;;346.92;328.90;;;26.20;99.90;;;;;;5053108;28;20033;-73
2023/09/17 11:19:05;;;;;;;321.85;305.25;;;26.20;99.90;;;;;;5054405;28;20475;-73
2023/09/17 11:22:11;;;;;;;338.50;320.48;;;26.30;99.90;;;;;;5054666;28;20059;-73
2023/09/17 11:24:37;;;;;;;347.27;329.38;;;26.30;99.90;;;;;;5032774;28;20111;-73
2023/09/17 11:27:11;;;;;;;351.08;332.92;;;26.30;99.90;;;;;;5015758;28;20041;-73
2023/09/17 11:29:38;;;;;;;371.92;352.63;;;26.20;99.90;;;;;;5032603;28;20038;-73
2023/09/17 11:32:05;;;;;;;363.98;345.08;;;26.20;99.90;;;;;;5030787;28;20492;-73
2023/09/17 11:34:32;;;;;;;322.40;305.75;;;26.20;99.90;;;;;;5032169;28;20084;-73
2023/09/17 11:36:58;;;;;;;326.33;309.48;;;26.10;99.90;;;;;;5023506;28;20034;-73
2023/09/17 11:39:24;;;;;;;331.55;314.48;;;26.10;99.90;;;;;;4996393;28;20455;-72
2023/09/17 11:41:53;;;;;;;326.90;310.27;;;26.20;99.90;;;;;;5026151;28;20041;-73
2023/09/17 11:44:22;;;;;;;342.08;324.23;;;26.30;99.90;;;;;;5000026;28;20443;-73
2023/09/17 11:46:49;;;;;;;359.17;340.50;;;26.30;99.90;;;;;;5014711;28;20045;-73
2023/09/17 11:49:15;;;;;;;347.80;329.83;;;26.40;99.90;;;;;;5031213;28;20041;-72
2023/09/17 11:51:45;;;;;;;324.75;307.95;;;26.50;99.90;;;;;;5030684;28;20060;-72
2023/09/17 11:54:25;;;;;;;350.83;332.40;;;26.60;99.90;;;;;;5032052;28;20046;-73
2023/09/17 11:56:55;;;;;;;355.63;336.95;;;26.60;99.90;;;;;;5030894;28;20053;-73
2023/09/17 11:59:22;;;;;;;353.00;335.00;;;26.80;99.90;;;;;;5034030;28;20512;-73
2023/09/17 12:01:53;;;;;;;349.38;331.33;;;26.80;99.90;;;;;;5053714;28;20041;-73
2023/09/17 12:04:20;;;;;;;373.00;353.30;;;26.80;99.90;;;;;;5054593;28;20415;-72
2023/09/17 12:06:47;;;;;;;403.05;381.45;;;26.90;99.90;;;;;;5035478;28;20044;-73
2023/09/17 12:09:31;;;;;;;401.10;379.77;;;27.00;99.90;;;;;;5052862;28;20029;-72
2023/09/17 12:11:58;;;;;;;363.45;344.52;;;27.00;99.90;;;;;;5053507;28;20021;-73
2023/09/17 12:14:24;;;;;;;409.70;387.48;;;27.10;99.90;;;;;;5053895;28;20049;-72
2023/09/17 12:16:50;;;;;;;427.10;403.88;;;27.10;99.90;;;;;;5034772;28;20491;-72
2023/09/17 12:19:17;;;;;;;448.15;423.48;;;27.20;99.90;;;;;;5036008;28;20471;-72
2023/09/17 12:21:50;;;;;;;449.50;424.67;;;27.20;99.90;;;;;;5053198;28;20407;-73
2023/09/17 12:24:29;;;;;;;434.48;410.48;;;27.30;99.90;;;;;;5053825;28;20035;-73